Time;durP1;ratioP1;P1;durP2;ratioP2;P2;SDS_P1;SDS_P2;PMS_P1;PMS_P2;Temp;Humidity;BMP_temperature;BMP_pressure;BME280_temperature;BME280_humidity;BME280_pressure;Samples;Min_cycle;Max_cycle;Signal;HPM_P1;HPM_P2
2021/07/02 00:02:25;;;;;;;;;;;;;;;;;;;;;
2021/07/02 00:04:53;;;;;;;10.63;6.90;;;16.20;99.90;;;;;;4967344;28;20413;-94
2021/07/02 00:07:26;;;;;;;10.77;6.05;;;16.20;99.90;;;;;;4965390;28;20042;-96
2021/07/02 00:12:41;;;;;;;9.80;5.88;;;16.30;99.90;;;;;;4943725;29;20046;-93
2021/07/02 00:18:48;;;;;;;10.70;5.60;;;16.30;99.90;;;;;;4957698;28;20037;-94
2021/07/02 00:21:14;;;;;;;12.52;6.45;;;16.30;99.90;;;;;;4964282;28;20035;-94
2021/07/02 00:23:40;;;;;;;11.90;7.03;;;16.30;99.90;;;;;;4951062;28;20109;-94
2021/07/02 00:26:05;;;;;;;11.73;6.57;;;16.30;99.90;;;;;;4952165;28;20042;-94
2021/07/02 00:28:31;;;;;;;13.18;7.47;;;16.30;99.90;;;;;;4951562;28;20386;-93
2021/07/02 00:31:39;;;;;;;12.80;7.45;;;16.30;99.90;;;;;;4949218;28;20105;-95
2021/07/02 00:34:41;;;;;;;15.25;7.07;;;16.30;99.90;;;;;;4945772;29;20047;-95
2021/07/02 00:40:02;;;;;;;16.50;6.70;;;16.20;99.90;;;;;;4944788;28;20122;-93
2021/07/02 00:42:51;;;;;;;13.52;7.63;;;16.20;99.90;;;;;;4927347;29;20063;-95
2021/07/02 00:45:32;;;;;;;14.00;6.60;;;16.20;99.90;;;;;;4925486;29;20034;-92
2021/07/02 00:48:21;;;;;;;15.27;7.18;;;16.20;99.90;;;;;;4937134;29;20043;-95
2021/07/02 00:50:49;;;;;;;15.25;7.45;;;16.30;99.90;;;;;;4928303;29;20075;-94
2021/07/02 00:53:41;;;;;;;13.85;7.72;;;16.30;99.90;;;;;;4945354;29;20039;-94
2021/07/02 00:59:42;;;;;;;;;;;;;;;;;;;;;
2021/07/02 01:02:21;;;;;;;;;;;;;;;;;;;;;
2021/07/02 01:05:33;;;;;;;12.65;7.95;;;16.40;99.90;;;;;;4926495;29;20039;-96
2021/07/02 01:15:28;;;;;;;14.07;6.75;;;16.40;99.90;;;;;;4902465;29;20336;-95
2021/07/02 01:18:39;;;;;;;;;;;;;;;;;;;;;
2021/07/02 01:21:11;;;;;;;19.55;8.10;;;16.40;99.90;;;;;;4909898;29;20046;-95
2021/07/02 01:23:39;;;;;;;20.80;8.48;;;16.30;99.90;;;;;;4926042;29;20387;-94
2021/07/02 01:26:22;;;;;;;15.15;7.55;;;16.30;99.90;;;;;;4954784;29;20130;-95
2021/07/02 01:32:20;;;;;;;15.52;8.23;;;16.30;99.90;;;;;;4912719;29;20043;-95
2021/07/02 01:34:53;;;;;;;16.73;8.35;;;16.30;99.90;;;;;;4945573;28;20046;-94
2021/07/02 01:37:34;;;;;;;18.38;8.60;;;16.30;99.90;;;;;;4951757;29;20119;-94
2021/07/02 01:40:07;;;;;;;20.88;9.15;;;16.30;99.90;;;;;;4933951;29;20035;-95
2021/07/02 01:42:43;;;;;;;17.98;8.50;;;16.40;99.90;;;;;;4941677;29;20459;-93
2021/07/02 01:45:09;;;;;;;20.05;9.70;;;16.40;99.90;;;;;;4946316;28;20564;-94
2021/07/02 01:47:37;;;;;;;15.98;9.02;;;16.40;99.90;;;;;;4963447;28;20035;-94
2021/07/02 01:50:04;;;;;;;16.58;7.65;;;16.40;99.90;;;;;;4949922;28;20054;-94
2021/07/02 01:52:30;;;;;;;15.25;8.27;;;16.30;99.90;;;;;;4950746;29;20046;-93
2021/07/02 01:54:56;;;;;;;19.23;9.38;;;16.30;99.90;;;;;;4944217;29;20101;-93
2021/07/02 01:57:28;;;;;;;18.05;8.90;;;16.40;99.90;;;;;;4960754;29;20035;-95
2021/07/02 01:59:54;;;;;;;18.35;9.25;;;16.30;99.90;;;;;;4955596;29;20126;-94
2021/07/02 02:02:21;;;;;;;19.77;9.70;;;16.30;99.90;;;;;;4941372;29;20036;-95
2021/07/02 02:04:53;;;;;;;13.80;7.70;;;16.30;99.90;;;;;;4929712;29;20035;-93
2021/07/02 02:07:18;;;;;;;28.98;9.77;;;16.40;99.90;;;;;;4959856;29;20031;-94
2021/07/02 02:09:46;;;;;;;21.67;9.13;;;16.40;99.90;;;;;;4945100;29;20131;-94
2021/07/02 02:12:12;;;;;;;18.40;9.23;;;16.40;99.90;;;;;;4943385;29;20039;-94
2021/07/02 02:14:38;;;;;;;20.15;9.65;;;16.40;99.90;;;;;;4944187;29;20039;-94
2021/07/02 02:17:03;;;;;;;20.02;9.52;;;16.50;99.90;;;;;;4944217;29;20122;-94
2021/07/02 02:19:29;;;;;;;20.05;9.48;;;16.40;99.90;;;;;;4962738;28;20294;-94
2021/07/02 02:21:57;;;;;;;23.88;10.05;;;16.50;99.90;;;;;;4954820;29;20035;-94
2021/07/02 02:24:50;;;;;;;24.40;10.20;;;16.50;99.90;;;;;;4943221;29;20590;-96
2021/07/02 02:27:15;;;;;;;17.27;9.07;;;16.50;99.90;;;;;;4944014;29;20295;-94
2021/07/02 02:29:48;;;;;;;21.45;10.15;;;16.50;99.80;;;;;;4944363;29;20054;-94
2021/07/02 02:32:21;;;;;;;20.08;8.95;;;16.50;99.90;;;;;;4940457;29;20095;-94
2021/07/02 02:35:05;;;;;;;18.13;9.10;;;16.50;99.90;;;;;;4932031;28;20038;-94
2021/07/02 02:37:31;;;;;;;21.63;10.45;;;16.50;99.80;;;;;;4948345;29;20047;-95
2021/07/02 02:39:57;;;;;;;20.98;9.77;;;16.50;99.80;;;;;;4948470;28;20374;-95
2021/07/02 02:42:57;;;;;;;19.38;8.90;;;16.50;99.80;;;;;;4962800;28;20049;-95
2021/07/02 02:45:38;;;;;;;23.17;10.05;;;16.50;99.90;;;;;;4944894;29;20039;-95
2021/07/02 02:51:47;;;;;;;21.95;10.25;;;16.50;99.90;;;;;;4945585;29;20059;-94
2021/07/02 02:58:15;;;;;;;18.10;9.02;;;16.50;99.90;;;;;;4921541;29;20028;-95
2021/07/02 03:00:48;;;;;;;20.05;9.75;;;16.50;99.90;;;;;;4885359;29;20048;-94
2021/07/02 03:03:13;;;;;;;25.25;9.40;;;16.50;99.90;;;;;;4924024;29;20133;-94
2021/07/02 03:09:52;;;;;;;19.25;9.48;;;16.50;99.90;;;;;;4913732;29;20038;-94
2021/07/02 03:26:49;;;;;;;19.05;10.35;;;16.40;99.90;;;;;;4902055;28;20305;-96
2021/07/02 03:29:16;;;;;;;21.20;9.85;;;16.40;99.90;;;;;;4865435;29;20037;-95
2021/07/02 03:39:00;;;;;;;26.25;11.13;;;16.50;99.90;;;;;;4853039;29;20173;-93
2021/07/02 03:42:04;;;;;;;26.20;11.27;;;16.50;99.90;;;;;;4883878;29;20101;-96
2021/07/02 03:44:29;;;;;;;26.40;11.13;;;16.60;99.90;;;;;;4830194;29;20115;-94
2021/07/02 03:46:55;;;;;;;24.30;13.00;;;16.50;99.90;;;;;;4927385;29;20035;-94
2021/07/02 03:49:34;;;;;;;25.58;11.43;;;16.50;99.90;;;;;;4946784;29;20114;-95
2021/07/02 03:52:28;;;;;;;19.67;10.18;;;16.60;99.80;;;;;;4952879;28;20070;-94
2021/07/02 03:55:26;;;;;;;26.50;11.90;;;16.60;99.90;;;;;;4944802;29;20040;-96
2021/07/02 03:58:15;;;;;;;22.05;10.63;;;16.60;99.70;;;;;;4949253;29;20035;-95
2021/07/02 04:00:40;;;;;;;21.40;9.77;;;16.60;99.90;;;;;;4927756;29;20070;-94
2021/07/02 04:03:06;;;;;;;21.00;11.27;;;16.60;99.90;;;;;;4927377;29;20079;-94
2021/07/02 04:06:00;;;;;;;28.08;11.02;;;16.60;99.90;;;;;;4942986;29;20395;-96
2021/07/02 04:12:33;;;;;;;25.23;12.23;;;16.60;99.90;;;;;;4917090;29;20032;-94
2021/07/02 04:18:54;;;;;;;27.13;11.75;;;16.70;99.70;;;;;;4962379;29;20306;-96
2021/07/02 04:21:30;;;;;;;23.75;11.50;;;16.70;99.90;;;;;;4945868;29;20047;-95
2021/07/02 04:27:20;;;;;;;;;;;16.60;99.80;;;;;;4946570;28;20039;-94
2021/07/02 04:29:45;;;;;;;20.02;10.70;;;16.60;99.90;;;;;;4951300;29;19968;-94
2021/07/02 04:35:12;;;;;;;23.77;12.15;;;16.50;99.90;;;;;;4958668;29;20039;-93
2021/07/02 04:37:43;;;;;;;25.23;13.18;;;16.60;99.90;;;;;;4945868;29;20039;-94
2021/07/02 04:40:10;;;;;;;21.40;11.73;;;16.60;99.90;;;;;;4945393;29;20042;-93
2021/07/02 04:43:14;;;;;;;22.88;12.05;;;16.60;99.90;;;;;;4960606;28;20129;-95
2021/07/02 04:46:31;;;;;;;22.83;11.13;;;16.60;99.90;;;;;;4957844;29;20038;-94
2021/07/02 04:56:46;;;;;;;23.33;11.05;;;16.70;99.90;;;;;;4951637;29;20330;-94
2021/07/02 05:06:29;;;;;;;;;;;;;;;;;;;;;
2021/07/02 05:12:46;;;;;;;23.33;11.65;;;16.80;99.80;;;;;;4864152;29;20041;-95
2021/07/02 05:28:17;;;;;;;22.88;11.73;;;16.80;99.80;;;;;;4902234;29;20100;-94
2021/07/02 05:48:37;;;;;;;21.45;11.02;;;17.20;99.40;;;;;;4920465;29;20126;-96
2021/07/02 05:57:40;;;;;;;20.30;11.65;;;17.40;99.00;;;;;;4890914;29;20068;-95
2021/07/02 06:03:59;;;;;;;20.45;10.32;;;17.60;98.40;;;;;;4846030;29;20201;-94
2021/07/02 06:10:31;;;;;;;20.80;10.45;;;17.80;98.10;;;;;;4882564;29;20040;-95
2021/07/02 06:27:14;;;;;;;21.10;10.80;;;18.00;97.40;;;;;;4831012;29;20101;-94
2021/07/02 06:29:45;;;;;;;18.00;10.60;;;18.10;97.80;;;;;;4812286;29;20051;-94
2021/07/02 06:32:41;;;;;;;24.00;11.80;;;18.00;97.60;;;;;;4797896;29;20051;-94
2021/07/02 06:42:26;;;;;;;19.80;9.70;;;18.10;97.40;;;;;;4799182;29;20179;-96
2021/07/02 07:15:57;;;;;;;16.40;9.50;;;18.80;96.50;;;;;;4870103;29;20436;-96
2021/07/02 07:21:49;;;;;;;15.55;9.18;;;19.20;96.00;;;;;;4886300;29;20040;-94
2021/07/02 07:31:27;;;;;;;14.00;7.85;;;19.50;95.00;;;;;;4945166;29;20026;-96
2021/07/02 07:34:47;;;;;;;18.17;8.68;;;19.70;95.40;;;;;;4924550;29;20059;-92
2021/07/02 07:37:18;;;;;;;12.95;7.68;;;19.80;94.40;;;;;;4909478;29;20043;-88
2021/07/02 07:39:44;;;;;;;13.98;8.50;;;19.90;94.20;;;;;;4925737;29;20090;-92
2021/07/02 07:42:10;;;;;;;13.45;7.90;;;19.90;94.60;;;;;;4959426;29;20035;-86
2021/07/02 07:44:35;;;;;;;13.15;7.82;;;19.90;94.50;;;;;;4938157;29;20044;-87
2021/07/02 07:47:01;;;;;;;12.25;7.88;;;19.90;94.70;;;;;;4927828;29;20047;-87
2021/07/02 07:49:26;;;;;;;12.27;7.40;;;20.00;94.00;;;;;;4943491;28;20434;-87
2021/07/02 07:52:00;;;;;;;15.00;7.38;;;20.00;94.00;;;;;;4941149;29;20054;-86
2021/07/02 07:54:27;;;;;;;14.50;8.18;;;20.10;95.00;;;;;;4956713;29;20074;-85
2021/07/02 07:56:53;;;;;;;12.85;7.45;;;20.10;94.20;;;;;;4957419;29;20042;-85
2021/07/02 07:59:20;;;;;;;11.93;7.47;;;20.20;93.20;;;;;;4940866;29;20067;-86
2021/07/02 08:01:46;;;;;;;12.55;7.07;;;20.10;93.40;;;;;;4941260;29;20393;-86
2021/07/02 08:04:13;;;;;;;14.57;7.60;;;20.00;93.40;;;;;;4957988;29;20084;-87
2021/07/02 08:06:40;;;;;;;11.35;6.55;;;20.00;93.70;;;;;;4939930;29;20042;-86
2021/07/02 08:09:05;;;;;;;12.68;6.90;;;20.00;93.70;;;;;;4940491;29;20043;-86
2021/07/02 08:11:31;;;;;;;9.82;6.57;;;20.10;93.90;;;;;;4940057;29;20043;-86
2021/07/02 08:13:56;;;;;;;10.45;7.00;;;20.10;93.40;;;;;;4958051;28;20093;-86
2021/07/02 08:16:24;;;;;;;12.40;6.60;;;20.00;93.30;;;;;;4963177;28;20054;-86
2021/07/02 08:18:50;;;;;;;11.23;7.00;;;20.00;93.40;;;;;;4970990;28;20556;-86
2021/07/02 08:21:15;;;;;;;6.35;4.65;;;20.00;93.40;;;;;;4971580;28;20142;-89
2021/07/02 08:23:41;;;;;;;11.13;6.30;;;20.10;92.80;;;;;;4955370;28;20369;-86
2021/07/02 08:26:07;;;;;;;9.35;6.25;;;20.20;93.40;;;;;;4974974;28;20547;-87
2021/07/02 08:31:17;;;;;;;9.30;5.70;;;20.40;92.80;;;;;;4956502;29;20038;-85
2021/07/02 08:33:43;;;;;;;11.60;6.57;;;20.50;93.20;;;;;;4940122;29;20047;-86
2021/07/02 08:36:08;;;;;;;9.20;6.03;;;20.70;92.70;;;;;;4950384;28;20462;-87
2021/07/02 08:38:34;;;;;;;9.02;5.30;;;20.90;92.30;;;;;;4959279;28;20042;-86
2021/07/02 08:40:59;;;;;;;7.35;5.60;;;21.00;91.70;;;;;;4939949;29;20519;-86
2021/07/02 08:43:25;;;;;;;8.02;5.72;;;21.10;92.30;;;;;;4939672;29;20078;-84
2021/07/02 08:45:51;;;;;;;11.60;6.40;;;21.20;92.10;;;;;;4956605;29;20054;-85
2021/07/02 08:48:21;;;;;;;9.73;5.68;;;21.30;91.40;;;;;;4954374;28;20174;-85
2021/07/02 08:50:46;;;;;;;9.32;6.65;;;21.30;91.50;;;;;;4956017;29;20112;-85
2021/07/02 08:53:12;;;;;;;11.00;6.22;;;21.40;91.80;;;;;;4956062;29;20410;-85
2021/07/02 08:55:39;;;;;;;11.68;7.10;;;21.40;91.20;;;;;;4939677;29;20043;-85
2021/07/02 08:58:13;;;;;;;10.10;6.07;;;21.50;91.20;;;;;;4939035;29;20082;-85
2021/07/02 09:00:39;;;;;;;10.40;6.28;;;21.50;91.10;;;;;;4939596;29;20086;-85
2021/07/02 09:03:24;;;;;;;13.55;6.47;;;21.50;90.90;;;;;;4956073;29;20034;-84
2021/07/02 09:05:50;;;;;;;9.90;6.03;;;21.50;90.70;;;;;;4953268;29;20081;-86
2021/07/02 09:08:16;;;;;;;9.30;5.90;;;21.50;90.50;;;;;;4955113;29;20063;-86
2021/07/02 09:10:42;;;;;;;8.80;5.00;;;21.50;91.30;;;;;;4938568;29;20102;-85
2021/07/02 09:13:07;;;;;;;11.32;6.40;;;21.60;91.50;;;;;;4954904;29;20419;-85
2021/07/02 09:15:48;;;;;;;7.90;5.68;;;21.70;91.00;;;;;;4955931;29;20138;-85
2021/07/02 09:18:15;;;;;;;8.48;5.55;;;21.90;90.50;;;;;;4965225;28;20043;-85
2021/07/02 09:20:43;;;;;;;9.48;6.65;;;21.90;90.50;;;;;;4935507;29;20319;-85
2021/07/02 09:23:11;;;;;;;10.50;6.97;;;21.90;89.90;;;;;;4925627;29;20039;-85
2021/07/02 09:25:57;;;;;;;9.57;6.20;;;21.90;89.40;;;;;;4953270;29;20039;-86
2021/07/02 09:28:30;;;;;;;10.13;5.40;;;21.80;88.80;;;;;;4954500;28;20571;-85
2021/07/02 09:30:55;;;;;;;9.40;6.03;;;21.80;90.40;;;;;;4935478;29;20807;-85
2021/07/02 09:33:25;;;;;;;8.65;6.13;;;21.80;90.00;;;;;;4951046;29;20035;-86
2021/07/02 09:36:00;;;;;;;10.15;5.25;;;21.80;90.50;;;;;;4938768;29;20035;-85
2021/07/02 09:38:39;;;;;;;10.63;7.03;;;21.80;90.70;;;;;;4935126;29;20126;-85
2021/07/02 09:41:07;;;;;;;9.82;5.95;;;22.00;89.10;;;;;;4921845;29;20039;-85
2021/07/02 09:43:33;;;;;;;7.25;5.18;;;22.30;87.30;;;;;;4935611;29;20051;-85
2021/07/02 09:46:06;;;;;;;12.15;5.78;;;22.40;87.50;;;;;;4944992;29;20102;-85
2021/07/02 09:48:43;;;;;;;9.48;5.93;;;22.60;85.50;;;;;;4952000;29;20042;-85
2021/07/02 09:51:12;;;;;;;8.75;6.20;;;22.80;85.40;;;;;;4962578;28;20132;-86
2021/07/02 09:53:40;;;;;;;10.68;5.78;;;22.80;84.30;;;;;;4939335;29;20098;-85
2021/07/02 09:56:09;;;;;;;9.02;5.70;;;22.70;85.80;;;;;;4938735;29;20463;-85
2021/07/02 09:58:37;;;;;;;7.20;5.20;;;22.70;86.10;;;;;;4938582;29;20073;-86
2021/07/02 10:01:04;;;;;;;9.52;6.35;;;22.60;86.50;;;;;;4954741;28;20054;-85
2021/07/02 10:03:32;;;;;;;6.93;5.30;;;22.50;86.30;;;;;;4954877;29;20039;-86
2021/07/02 10:06:20;;;;;;;14.07;6.95;;;22.50;85.70;;;;;;4938711;29;20043;-86
2021/07/02 10:08:46;;;;;;;11.15;6.78;;;22.40;85.80;;;;;;4955783;29;20458;-84
2021/07/02 10:11:13;;;;;;;15.48;7.18;;;22.40;85.00;;;;;;4954539;29;20051;-86
2021/07/02 10:13:41;;;;;;;10.52;7.45;;;22.30;85.50;;;;;;4957883;28;20519;-85
2021/07/02 10:16:08;;;;;;;9.88;6.63;;;22.30;85.50;;;;;;4939310;29;20193;-84
2021/07/02 10:18:38;;;;;;;7.95;6.50;;;22.30;87.40;;;;;;4954093;29;20483;-85
2021/07/02 10:21:05;;;;;;;10.48;6.72;;;22.30;86.10;;;;;;4960299;28;20042;-84
2021/07/02 10:23:35;;;;;;;8.98;6.53;;;22.40;86.00;;;;;;4944273;29;20039;-85
2021/07/02 10:26:03;;;;;;;8.68;6.10;;;22.40;87.20;;;;;;4956629;28;20042;-85
2021/07/02 10:28:30;;;;;;;9.23;5.90;;;22.60;87.60;;;;;;4949980;28;20043;-85
2021/07/02 10:30:56;;;;;;;11.02;6.65;;;22.60;85.90;;;;;;4937741;29;20354;-85
2021/07/02 10:33:28;;;;;;;6.93;5.65;;;22.70;88.00;;;;;;4938231;29;20043;-85
2021/07/02 10:35:56;;;;;;;10.35;6.05;;;22.80;87.20;;;;;;4954934;29;20047;-84
2021/07/02 10:38:22;;;;;;;9.52;5.90;;;23.10;86.40;;;;;;4937803;29;20039;-86
2021/07/02 10:40:47;;;;;;;9.68;6.07;;;23.30;84.90;;;;;;4953113;29;20450;-84
2021/07/02 10:43:21;;;;;;;11.85;6.00;;;23.20;85.40;;;;;;4938185;29;20053;-85
2021/07/02 10:46:14;;;;;;;7.90;5.97;;;23.10;84.60;;;;;;4938539;29;20133;-85
2021/07/02 10:48:53;;;;;;;8.73;5.32;;;23.00;85.30;;;;;;4935943;29;20050;-84
2021/07/02 10:51:31;;;;;;;9.38;5.00;;;22.80;85.00;;;;;;4953914;28;20058;-85
2021/07/02 10:54:14;;;;;;;8.85;5.35;;;22.70;85.10;;;;;;4953875;29;20043;-85
2021/07/02 10:56:45;;;;;;;10.00;4.82;;;22.70;86.40;;;;;;4954606;29;20043;-85
2021/07/02 10:59:14;;;;;;;8.63;4.95;;;22.80;85.40;;;;;;4937105;29;20035;-84
2021/07/02 11:02:12;;;;;;;6.22;4.22;;;22.90;87.60;;;;;;4953844;29;20066;-86
2021/07/02 11:04:40;;;;;;;7.80;5.18;;;23.10;86.40;;;;;;4938350;29;20078;-86
2021/07/02 11:07:11;;;;;;;5.45;4.22;;;23.40;84.40;;;;;;4954051;29;20395;-85
2021/07/02 11:09:52;;;;;;;6.80;4.93;;;23.70;83.60;;;;;;4937731;29;20683;-85
2021/07/02 11:12:35;;;;;;;12.25;4.40;;;24.00;86.20;;;;;;4937945;29;20051;-85
2021/07/02 11:15:05;;;;;;;7.35;4.95;;;24.30;82.10;;;;;;4940649;29;20047;-86
2021/07/02 11:17:40;;;;;;;8.02;4.72;;;24.40;79.40;;;;;;4940631;29;20496;-85
2021/07/02 11:20:12;;;;;;;6.20;3.70;;;24.40;83.20;;;;;;4964449;28;20027;-86
2021/07/02 11:22:46;;;;;;;7.07;4.03;;;24.40;81.40;;;;;;4942915;29;20061;-86
2021/07/02 11:25:22;;;;;;;6.65;4.03;;;24.50;80.10;;;;;;4942255;29;20047;-87
2021/07/02 11:27:50;;;;;;;6.82;4.38;;;24.50;79.50;;;;;;4969580;28;20112;-86
2021/07/02 11:30:22;;;;;;;10.77;4.07;;;24.50;80.50;;;;;;4942022;29;20031;-84
2021/07/02 11:32:49;;;;;;;7.15;4.32;;;24.50;80.10;;;;;;4939717;29;20043;-86
2021/07/02 11:35:19;;;;;;;5.97;4.00;;;24.40;79.80;;;;;;4956374;28;20055;-85
2021/07/02 11:38:03;;;;;;;8.60;4.15;;;24.30;80.70;;;;;;4957117;28;20577;-85
2021/07/02 11:40:39;;;;;;;6.65;4.13;;;24.10;80.50;;;;;;4958411;28;20043;-85
2021/07/02 11:43:07;;;;;;;7.35;3.80;;;23.90;80.60;;;;;;4933498;29;20051;-86
2021/07/02 11:45:42;;;;;;;5.63;4.43;;;23.70;81.00;;;;;;4935903;29;20102;-86
2021/07/02 11:48:26;;;;;;;5.40;3.90;;;23.50;81.60;;;;;;4955776;29;20070;-86
2021/07/02 11:50:55;;;;;;;5.40;4.13;;;23.40;81.80;;;;;;4938930;29;20292;-84
2021/07/02 11:53:33;;;;;;;4.60;3.95;;;23.40;83.60;;;;;;4956581;29;20078;-86
2021/07/02 11:56:17;;;;;;;8.35;4.50;;;23.50;83.20;;;;;;4940282;29;20045;-85
2021/07/02 11:58:47;;;;;;;5.65;3.50;;;23.60;82.20;;;;;;4940905;29;20043;-85
2021/07/02 12:01:25;;;;;;;7.40;4.32;;;23.80;83.80;;;;;;4934651;29;20046;-85
2021/07/02 12:03:59;;;;;;;5.05;3.78;;;24.00;80.30;;;;;;4957469;29;20043;-84
2021/07/02 12:06:25;;;;;;;5.95;3.35;;;24.20;79.60;;;;;;4957099;29;20130;-85
2021/07/02 12:09:09;;;;;;;6.75;3.53;;;24.30;81.00;;;;;;4940789;29;20039;-84
2021/07/02 12:11:46;;;;;;;5.53;4.18;;;24.30;80.00;;;;;;4956728;29;20035;-84
2021/07/02 12:14:19;;;;;;;5.63;4.00;;;24.20;79.10;;;;;;4957246;29;20386;-84
2021/07/02 12:16:47;;;;;;;5.28;4.00;;;24.10;80.00;;;;;;4939879;29;20561;-85
2021/07/02 12:19:17;;;;;;;4.65;3.35;;;24.00;82.00;;;;;;4956214;29;20149;-84
2021/07/02 12:21:51;;;;;;;5.40;4.32;;;24.00;81.80;;;;;;4940349;29;20435;-84
2021/07/02 12:24:20;;;;;;;4.20;3.80;;;23.90;80.10;;;;;;4939736;29;20043;-84
2021/07/02 12:26:50;;;;;;;5.10;4.13;;;23.90;81.30;;;;;;4956219;28;20307;-84
2021/07/02 12:29:15;;;;;;;5.57;4.07;;;23.80;82.20;;;;;;4968304;28;20109;-84
2021/07/02 12:31:47;;;;;;;5.68;4.80;;;23.70;81.70;;;;;;4973903;28;20038;-84
2021/07/02 12:34:20;;;;;;;6.05;4.28;;;23.70;81.90;;;;;;4957039;28;20300;-86
2021/07/02 12:36:56;;;;;;;5.05;3.85;;;23.60;80.30;;;;;;4952375;28;20158;-86
2021/07/02 12:39:39;;;;;;;6.97;4.07;;;23.60;81.40;;;;;;4924931;28;20035;-86
2021/07/02 12:42:19;;;;;;;4.35;3.78;;;23.50;82.50;;;;;;4945753;29;20049;-86
2021/07/02 12:44:53;;;;;;;6.60;3.95;;;23.50;82.80;;;;;;4960702;28;20500;-86
2021/07/02 12:47:20;;;;;;;6.00;4.63;;;23.50;83.90;;;;;;4965354;28;20564;-86
2021/07/02 12:49:58;;;;;;;7.22;3.97;;;23.50;82.40;;;;;;4960641;28;20391;-86
2021/07/02 12:54:57;;;;;;;4.53;3.25;;;23.90;82.40;;;;;;4965927;28;20126;-84
2021/07/02 12:57:30;;;;;;;4.03;3.30;;;24.10;79.80;;;;;;4971938;28;20043;-86
2021/07/02 13:00:06;;;;;;;8.75;4.13;;;24.30;80.60;;;;;;4953488;28;20097;-85
2021/07/02 13:02:36;;;;;;;6.90;3.35;;;24.20;81.00;;;;;;4950148;29;20045;-85
2021/07/02 13:05:06;;;;;;;4.57;3.35;;;24.20;79.70;;;;;;4944967;28;20031;-85
2021/07/02 13:07:56;;;;;;;5.35;3.88;;;24.20;80.40;;;;;;4973877;28;20042;-85
2021/07/02 13:10:28;;;;;;;7.63;3.83;;;24.10;79.80;;;;;;4958611;28;20046;-87
2021/07/02 13:13:16;;;;;;;8.55;4.32;;;23.90;80.00;;;;;;4967200;28;20062;-84
2021/07/02 13:15:48;;;;;;;5.70;3.60;;;23.60;80.50;;;;;;4958125;29;20031;-87
2021/07/02 13:18:25;;;;;;;7.13;4.67;;;23.40;82.40;;;;;;4940904;29;20129;-88
2021/07/02 13:20:55;;;;;;;6.35;3.95;;;23.20;83.40;;;;;;4942666;29;20086;-91
2021/07/02 13:23:22;;;;;;;6.00;4.15;;;23.10;83.70;;;;;;4960078;29;20050;-89
2021/07/02 13:26:04;;;;;;;4.60;3.78;;;23.10;84.00;;;;;;4959573;29;20047;-92
2021/07/02 13:28:31;;;;;;;7.35;4.88;;;23.10;84.00;;;;;;4944730;29;20043;-90
2021/07/02 13:30:57;;;;;;;9.75;4.57;;;23.00;84.50;;;;;;4963003;28;20058;-92
2021/07/02 13:33:23;;;;;;;5.20;4.07;;;22.90;84.10;;;;;;4945220;29;20050;-88
2021/07/02 13:35:48;;;;;;;6.78;4.10;;;22.90;85.10;;;;;;4950268;29;20043;-93
2021/07/02 13:38:17;;;;;;;8.32;4.60;;;22.90;84.30;;;;;;4966142;28;20046;-93
2021/07/02 13:40:49;;;;;;;9.23;4.32;;;22.80;85.20;;;;;;4946299;28;20375;-89
2021/07/02 13:43:16;;;;;;;;;;;22.80;85.50;;;;;;4961846;28;20125;-90
2021/07/02 13:46:02;;;;;;;8.98;4.20;;;22.70;85.00;;;;;;4944109;29;19922;-91
2021/07/02 13:48:32;;;;;;;5.85;4.00;;;22.60;86.00;;;;;;4942207;29;20133;-91
2021/07/02 13:50:59;;;;;;;9.45;4.97;;;22.60;85.60;;;;;;4944286;29;20130;-92
2021/07/02 13:53:29;;;;;;;13.07;4.88;;;22.50;86.20;;;;;;4942883;28;20118;-88
2021/07/02 13:55:54;;;;;;;5.88;4.57;;;22.50;86.50;;;;;;4943209;29;20031;-93
2021/07/02 13:58:20;;;;;;;6.65;4.68;;;22.40;87.40;;;;;;4960204;28;20054;-92
2021/07/02 14:00:47;;;;;;;8.63;4.88;;;22.40;86.40;;;;;;4937871;29;20036;-92
2021/07/02 14:03:13;;;;;;;8.48;5.18;;;22.40;86.30;;;;;;4957731;28;20426;-86
2021/07/02 14:05:40;;;;;;;7.30;4.63;;;22.30;86.00;;;;;;4940241;29;20051;-87
2021/07/02 14:08:08;;;;;;;7.20;4.85;;;22.30;86.60;;;;;;4960856;28;20125;-87
2021/07/02 14:10:34;;;;;;;9.65;5.15;;;22.20;87.30;;;;;;4956939;28;20577;-87
2021/07/02 14:13:00;;;;;;;8.35;5.20;;;22.10;87.40;;;;;;4956635;29;20102;-88
2021/07/02 14:15:26;;;;;;;7.35;4.90;;;22.20;87.30;;;;;;4955543;29;20309;-87
2021/07/02 14:17:52;;;;;;;7.85;5.40;;;22.10;87.40;;;;;;4940521;29;20036;-88
2021/07/02 14:20:17;;;;;;;6.85;5.07;;;22.10;87.70;;;;;;4925929;29;20077;-88
2021/07/02 14:22:44;;;;;;;7.30;5.35;;;22.00;87.20;;;;;;4964813;28;20072;-88
2021/07/02 14:25:15;;;;;;;8.98;5.22;;;22.10;88.10;;;;;;4923890;29;20304;-91
2021/07/02 14:27:41;;;;;;;7.82;6.03;;;22.10;88.50;;;;;;4931452;29;20046;-91
2021/07/02 14:30:08;;;;;;;8.77;5.93;;;22.00;88.40;;;;;;4962257;28;20039;-91
2021/07/02 14:32:36;;;;;;;9.63;5.75;;;22.00;88.50;;;;;;4957983;28;20425;-92
2021/07/02 14:35:04;;;;;;;9.35;6.53;;;21.90;88.80;;;;;;4944495;29;20036;-91
2021/07/02 14:37:29;;;;;;;9.95;5.90;;;21.90;88.40;;;;;;4949072;28;20050;-92
2021/07/02 14:39:58;;;;;;;7.35;5.38;;;21.90;89.40;;;;;;4952929;28;20043;-91
2021/07/02 14:42:24;;;;;;;12.45;7.15;;;21.90;89.30;;;;;;4978634;28;20070;-93
2021/07/02 14:44:49;;;;;;;12.05;6.03;;;21.80;89.30;;;;;;4955706;28;20074;-87
2021/07/02 14:47:16;;;;;;;8.95;5.45;;;21.70;88.90;;;;;;4958482;28;20101;-87
2021/07/02 14:49:43;;;;;;;9.30;5.80;;;21.70;88.70;;;;;;4969522;28;20042;-88
2021/07/02 14:52:09;;;;;;;10.90;6.32;;;21.70;89.10;;;;;;4944139;28;20485;-85
2021/07/02 14:54:35;;;;;;;12.95;6.68;;;21.70;88.50;;;;;;4958707;28;20055;-85
2021/07/02 14:57:00;;;;;;;9.45;6.43;;;21.60;89.70;;;;;;4929897;29;20036;-85
2021/07/02 14:59:26;;;;;;;9.18;5.68;;;21.50;90.00;;;;;;4941652;28;20626;-85
2021/07/02 15:01:51;;;;;;;11.63;5.80;;;21.40;90.40;;;;;;4959993;28;20403;-84
2021/07/02 15:04:17;;;;;;;13.45;6.80;;;21.40;90.90;;;;;;4958768;28;20075;-84
2021/07/02 15:06:42;;;;;;;8.43;6.22;;;21.40;91.00;;;;;;4975516;28;20042;-90
2021/07/02 15:09:10;;;;;;;12.27;6.18;;;21.40;90.60;;;;;;4938753;29;20049;-92
2021/07/02 15:11:38;;;;;;;9.63;5.82;;;21.40;90.50;;;;;;4932330;29;20065;-92
2021/07/02 15:14:04;;;;;;;10.13;5.80;;;21.40;90.60;;;;;;4947577;29;20054;-92
2021/07/02 15:16:30;;;;;;;9.07;6.22;;;21.40;90.10;;;;;;4947445;29;20182;-92
2021/07/02 15:19:01;;;;;;;7.07;4.97;;;21.50;90.20;;;;;;4951240;29;20039;-92
2021/07/02 15:21:30;;;;;;;9.20;6.03;;;21.50;89.60;;;;;;4952833;29;20118;-92
2021/07/02 15:23:56;;;;;;;8.07;5.45;;;21.40;89.00;;;;;;4946953;29;20043;-92
2021/07/02 15:26:26;;;;;;;6.25;4.72;;;21.40;89.80;;;;;;4947372;29;20126;-91
2021/07/02 15:28:52;;;;;;;7.43;5.28;;;21.30;89.70;;;;;;4946075;29;20457;-92
2021/07/02 15:32:03;;;;;;;8.40;5.65;;;21.20;89.60;;;;;;4951222;28;20157;-91
2021/07/02 15:34:28;;;;;;;9.32;6.22;;;21.20;89.90;;;;;;4926286;28;20043;-90
2021/07/02 15:36:57;;;;;;;9.02;5.93;;;21.10;89.90;;;;;;4953887;29;20302;-92
2021/07/02 15:39:22;;;;;;;7.93;5.82;;;21.10;90.20;;;;;;4945712;29;20039;-92
2021/07/02 15:41:48;;;;;;;9.38;5.70;;;21.00;90.10;;;;;;4949900;28;20101;-91
2021/07/02 15:47:43;;;;;;;7.18;5.05;;;21.00;90.30;;;;;;4932207;29;20104;-91
2021/07/02 15:50:17;;;;;;;9.15;6.15;;;21.00;90.60;;;;;;4946050;29;20031;-92
2021/07/02 15:52:51;;;;;;;15.38;6.82;;;21.10;90.20;;;;;;4945978;29;20046;-91
2021/07/02 15:55:22;;;;;;;8.75;5.88;;;21.10;90.30;;;;;;4946967;28;20054;-93
2021/07/02 15:57:50;;;;;;;11.50;6.82;;;21.20;90.50;;;;;;4945765;29;20039;-93
2021/07/02 16:00:18;;;;;;;12.15;6.28;;;21.20;90.10;;;;;;4935179;29;20067;-92
2021/07/02 16:02:44;;;;;;;9.52;6.35;;;21.20;90.00;;;;;;4927906;29;20039;-89
2021/07/02 16:05:13;;;;;;;10.18;7.28;;;21.20;90.40;;;;;;4928752;28;20047;-92
2021/07/02 16:07:42;;;;;;;9.75;6.55;;;21.20;90.10;;;;;;4950649;29;20354;-94
2021/07/02 16:10:08;;;;;;;8.95;6.07;;;21.20;90.00;;;;;;4948590;28;20106;-91
2021/07/02 16:12:37;;;;;;;12.75;7.32;;;21.20;90.00;;;;;;4953608;29;20657;-93
2021/07/02 16:15:10;;;;;;;10.80;6.97;;;21.20;89.70;;;;;;4944603;29;20054;-92
2021/07/02 16:17:36;;;;;;;10.50;7.03;;;21.20;90.00;;;;;;4945341;29;20133;-92
2021/07/02 16:20:17;;;;;;;12.65;7.60;;;21.20;90.10;;;;;;4945566;29;20477;-94
2021/07/02 16:23:04;;;;;;;12.60;7.28;;;21.20;90.10;;;;;;4945571;29;20042;-93
2021/07/02 16:25:29;;;;;;;9.52;6.45;;;21.20;90.50;;;;;;4945111;29;20046;-89
2021/07/02 16:27:56;;;;;;;12.23;8.07;;;21.30;89.40;;;;;;4947104;28;20031;-90
2021/07/02 16:30:25;;;;;;;14.10;7.57;;;21.20;89.10;;;;;;4964449;28;20066;-91
2021/07/02 16:32:50;;;;;;;10.20;7.55;;;21.20;89.10;;;;;;4945221;29;20031;-91
2021/07/02 16:35:16;;;;;;;13.32;7.53;;;21.20;89.70;;;;;;4931730;29;20043;-91
2021/07/02 16:37:41;;;;;;;10.07;6.90;;;21.10;90.00;;;;;;4931642;28;20422;-90